sensor_id;sensor_type;location;lat;lon;timestamp;temperature;humidity
18361;SHT31;9308;48.550;9.108;2023-03-31T00:00:42;11.52;67.98
18361;SHT31;9308;48.550;9.108;2023-03-31T00:03:08;11.45;68.12
18361;SHT31;9308;48.550;9.108;2023-03-31T00:05:36;11.29;68.68
18361;SHT31;9308;48.550;9.108;2023-03-31T00:08:01;11.41;68.41
18361;SHT31;9308;48.550;9.108;2023-03-31T00:10:29;11.34;68.37
18361;SHT31;9308;48.550;9.108;2023-03-31T00:12:56;11.44;68.49
18361;SHT31;9308;48.550;9.108;2023-03-31T00:15:22;11.32;68.55
18361;SHT31;9308;48.550;9.108;2023-03-31T00:17:47;11.45;67.93
18361;SHT31;9308;48.550;9.108;2023-03-31T00:20:13;11.29;68.80
18361;SHT31;9308;48.550;9.108;2023-03-31T00:22:39;11.45;68.45
18361;SHT31;9308;48.550;9.108;2023-03-31T00:25:10;11.29;69.10
18361;SHT31;9308;48.550;9.108;2023-03-31T00:27:35;11.37;68.64
18361;SHT31;9308;48.550;9.108;2023-03-31T00:30:01;11.48;68.26
18361;SHT31;9308;48.550;9.108;2023-03-31T00:32:26;11.59;68.17
18361;SHT31;9308;48.550;9.108;2023-03-31T00:34:52;11.39;68.68
18361;SHT31;9308;48.550;9.108;2023-03-31T00:37:17;11.38;68.93
18361;SHT31;9308;48.550;9.108;2023-03-31T00:39:43;11.31;68.58
18361;SHT31;9308;48.550;9.108;2023-03-31T00:42:09;11.58;68.24
18361;SHT31;9308;48.550;9.108;2023-03-31T00:48:06;11.37;68.70
18361;SHT31;9308;48.550;9.108;2023-03-31T00:50:47;11.42;68.62
18361;SHT31;9308;48.550;9.108;2023-03-31T00:53:16;11.37;68.98
18361;SHT31;9308;48.550;9.108;2023-03-31T00:55:50;11.66;68.54
18361;SHT31;9308;48.550;9.108;2023-03-31T00:58:16;11.48;68.60
18361;SHT31;9308;48.550;9.108;2023-03-31T01:00:48;11.58;68.61
18361;SHT31;9308;48.550;9.108;2023-03-31T01:03:17;11.61;68.57
18361;SHT31;9308;48.550;9.108;2023-03-31T01:05:47;11.69;68.14
18361;SHT31;9308;48.550;9.108;2023-03-31T01:08:18;11.65;68.31
18361;SHT31;9308;48.550;9.108;2023-03-31T01:10:54;11.73;68.24
18361;SHT31;9308;48.550;9.108;2023-03-31T01:13:23;11.79;67.53
18361;SHT31;9308;48.550;9.108;2023-03-31T01:15:48;11.76;67.06
18361;SHT31;9308;48.550;9.108;2023-03-31T01:18:15;11.79;66.22
18361;SHT31;9308;48.550;9.108;2023-03-31T01:37:14;11.79;65.06
18361;SHT31;9308;48.550;9.108;2023-03-31T01:48:18;11.93;65.09
18361;SHT31;9308;48.550;9.108;2023-03-31T01:50:56;11.97;65.53
18361;SHT31;9308;48.550;9.108;2023-03-31T01:53:31;12.08;66.00
18361;SHT31;9308;48.550;9.108;2023-03-31T01:56:09;12.14;65.49
18361;SHT31;9308;48.550;9.108;2023-03-31T01:58:43;12.00;65.47
18361;SHT31;9308;48.550;9.108;2023-03-31T02:03:54;11.93;66.83
18361;SHT31;9308;48.550;9.108;2023-03-31T02:06:25;11.82;67.05
18361;SHT31;9308;48.550;9.108;2023-03-31T02:08:58;11.79;67.45
18361;SHT31;9308;48.550;9.108;2023-03-31T02:11:27;11.67;68.55
18361;SHT31;9308;48.550;9.108;2023-03-31T02:13:55;11.79;68.55
18361;SHT31;9308;48.550;9.108;2023-03-31T02:16:24;11.70;69.14
18361;SHT31;9308;48.550;9.108;2023-03-31T02:18:53;11.79;69.19
18361;SHT31;9308;48.550;9.108;2023-03-31T02:21:31;11.86;69.63
18361;SHT31;9308;48.550;9.108;2023-03-31T02:24:01;11.72;70.68
18361;SHT31;9308;48.550;9.108;2023-03-31T02:26:32;11.83;70.81
18361;SHT31;9308;48.550;9.108;2023-03-31T02:29:00;11.93;70.68
18361;SHT31;9308;48.550;9.108;2023-03-31T02:34:06;12.24;69.90
18361;SHT31;9308;48.550;9.108;2023-03-31T02:36:33;12.35;69.40
18361;SHT31;9308;48.550;9.108;2023-03-31T02:39:05;12.28;70.55
18361;SHT31;9308;48.550;9.108;2023-03-31T02:41:32;12.40;70.10
18361;SHT31;9308;48.550;9.108;2023-03-31T02:43:58;12.44;70.62
18361;SHT31;9308;48.550;9.108;2023-03-31T02:46:24;12.42;70.07
18361;SHT31;9308;48.550;9.108;2023-03-31T02:48:53;12.44;70.23
18361;SHT31;9308;48.550;9.108;2023-03-31T02:54:25;12.21;70.77
18361;SHT31;9308;48.550;9.108;2023-03-31T02:59:42;12.04;71.67
18361;SHT31;9308;48.550;9.108;2023-03-31T03:10:48;11.80;71.91
18361;SHT31;9308;48.550;9.108;2023-03-31T03:13:41;11.86;71.77
18361;SHT31;9308;48.550;9.108;2023-03-31T03:16:22;11.69;72.08
18361;SHT31;9308;48.550;9.108;2023-03-31T03:18:59;11.58;72.46
18361;SHT31;9308;48.550;9.108;2023-03-31T03:21:26;11.77;71.43
18361;SHT31;9308;48.550;9.108;2023-03-31T03:23:52;11.73;71.98
18361;SHT31;9308;48.550;9.108;2023-03-31T03:26:19;11.75;71.58
18361;SHT31;9308;48.550;9.108;2023-03-31T03:28:51;11.63;71.94
18361;SHT31;9308;48.550;9.108;2023-03-31T03:31:18;11.65;72.20
18361;SHT31;9308;48.550;9.108;2023-03-31T03:33:44;11.59;72.35
18361;SHT31;9308;48.550;9.108;2023-03-31T03:36:09;11.48;72.57
18361;SHT31;9308;48.550;9.108;2023-03-31T03:38:35;11.47;72.25
18361;SHT31;9308;48.550;9.108;2023-03-31T03:41:01;11.20;72.61
18361;SHT31;9308;48.550;9.108;2023-03-31T03:43:26;11.24;72.75
18361;SHT31;9308;48.550;9.108;2023-03-31T03:45:52;11.32;72.25
18361;SHT31;9308;48.550;9.108;2023-03-31T03:48:18;11.14;72.72
18361;SHT31;9308;48.550;9.108;2023-03-31T03:50:46;11.10;71.89
18361;SHT31;9308;48.550;9.108;2023-03-31T03:53:12;10.77;73.55
18361;SHT31;9308;48.550;9.108;2023-03-31T03:55:38;10.91;72.88
18361;SHT31;9308;48.550;9.108;2023-03-31T03:58:03;10.82;72.81
18361;SHT31;9308;48.550;9.108;2023-03-31T04:00:29;10.53;73.36
18361;SHT31;9308;48.550;9.108;2023-03-31T04:02:55;10.76;73.44
18361;SHT31;9308;48.550;9.108;2023-03-31T04:05:20;10.72;73.50
18361;SHT31;9308;48.550;9.108;2023-03-31T04:07:46;10.72;72.67
18361;SHT31;9308;48.550;9.108;2023-03-31T04:10:11;10.75;72.84
18361;SHT31;9308;48.550;9.108;2023-03-31T04:12:37;10.73;72.43
18361;SHT31;9308;48.550;9.108;2023-03-31T04:15:03;10.61;73.11
18361;SHT31;9308;48.550;9.108;2023-03-31T04:17:29;10.66;73.17
18361;SHT31;9308;48.550;9.108;2023-03-31T04:20:07;10.62;74.03
18361;SHT31;9308;48.550;9.108;2023-03-31T04:22:34;10.77;73.66
18361;SHT31;9308;48.550;9.108;2023-03-31T04:25:10;10.82;73.32
18361;SHT31;9308;48.550;9.108;2023-03-31T04:27:46;10.79;73.44
18361;SHT31;9308;48.550;9.108;2023-03-31T04:30:18;10.72;73.75
18361;SHT31;9308;48.550;9.108;2023-03-31T04:32:59;10.94;72.99
18361;SHT31;9308;48.550;9.108;2023-03-31T04:35:28;10.90;73.47
18361;SHT31;9308;48.550;9.108;2023-03-31T04:38:18;10.97;73.71
18361;SHT31;9308;48.550;9.108;2023-03-31T04:40:54;10.87;73.84
18361;SHT31;9308;48.550;9.108;2023-03-31T04:43:20;10.90;74.17
18361;SHT31;9308;48.550;9.108;2023-03-31T04:45:46;10.99;73.25
18361;SHT31;9308;48.550;9.108;2023-03-31T04:48:12;11.00;73.95
18361;SHT31;9308;48.550;9.108;2023-03-31T04:50:37;11.20;73.55
18361;SHT31;9308;48.550;9.108;2023-03-31T04:53:04;11.22;72.73
18361;SHT31;9308;48.550;9.108;2023-03-31T04:55:29;11.21;73.23
18361;SHT31;9308;48.550;9.108;2023-03-31T04:57:55;11.31;72.80
18361;SHT31;9308;48.550;9.108;2023-03-31T05:00:21;11.31;72.92
18361;SHT31;9308;48.550;9.108;2023-03-31T05:02:47;11.42;73.00
18361;SHT31;9308;48.550;9.108;2023-03-31T05:05:12;11.47;72.63
18361;SHT31;9308;48.550;9.108;2023-03-31T05:07:38;11.63;72.02
18361;SHT31;9308;48.550;9.108;2023-03-31T05:10:04;11.47;72.99
18361;SHT31;9308;48.550;9.108;2023-03-31T05:12:37;11.59;72.68
18361;SHT31;9308;48.550;9.108;2023-03-31T05:15:04;11.63;72.98
18361;SHT31;9308;48.550;9.108;2023-03-31T05:17:34;11.73;73.19
18361;SHT31;9308;48.550;9.108;2023-03-31T05:20:00;11.67;72.39
18361;SHT31;9308;48.550;9.108;2023-03-31T05:22:26;11.65;72.67
18361;SHT31;9308;48.550;9.108;2023-03-31T05:24:52;11.55;73.43
18361;SHT31;9308;48.550;9.108;2023-03-31T05:27:17;11.69;72.92
18361;SHT31;9308;48.550;9.108;2023-03-31T05:29:45;11.62;73.66
18361;SHT31;9308;48.550;9.108;2023-03-31T05:32:11;11.80;74.12
18361;SHT31;9308;48.550;9.108;2023-03-31T05:34:36;11.62;74.42
18361;SHT31;9308;48.550;9.108;2023-03-31T05:37:02;11.77;74.59
18361;SHT31;9308;48.550;9.108;2023-03-31T05:39:27;11.66;74.81
18361;SHT31;9308;48.550;9.108;2023-03-31T05:41:58;11.73;75.31
18361;SHT31;9308;48.550;9.108;2023-03-31T05:44:23;11.72;74.94
18361;SHT31;9308;48.550;9.108;2023-03-31T05:46:50;11.69;74.46
18361;SHT31;9308;48.550;9.108;2023-03-31T05:49:16;11.56;75.25
18361;SHT31;9308;48.550;9.108;2023-03-31T05:51:41;11.77;74.09
18361;SHT31;9308;48.550;9.108;2023-03-31T05:54:07;11.85;74.83
18361;SHT31;9308;48.550;9.108;2023-03-31T05:56:33;11.77;74.87
18361;SHT31;9308;48.550;9.108;2023-03-31T05:58:59;11.87;75.05
18361;SHT31;9308;48.550;9.108;2023-03-31T06:01:25;11.93;75.10
18361;SHT31;9308;48.550;9.108;2023-03-31T06:03:51;11.82;75.47
18361;SHT31;9308;48.550;9.108;2023-03-31T06:06:16;11.85;75.28
18361;SHT31;9308;48.550;9.108;2023-03-31T06:08:43;11.93;75.67
18361;SHT31;9308;48.550;9.108;2023-03-31T06:11:11;12.04;75.01
18361;SHT31;9308;48.550;9.108;2023-03-31T06:13:38;12.04;74.74
18361;SHT31;9308;48.550;9.108;2023-03-31T06:16:04;11.80;75.89
18361;SHT31;9308;48.550;9.108;2023-03-31T06:18:33;11.82;75.84
18361;SHT31;9308;48.550;9.108;2023-03-31T06:20:59;11.94;75.21
18361;SHT31;9308;48.550;9.108;2023-03-31T06:23:25;11.86;75.77
18361;SHT31;9308;48.550;9.108;2023-03-31T06:25:51;12.16;75.09
18361;SHT31;9308;48.550;9.108;2023-03-31T06:28:17;12.07;74.83
18361;SHT31;9308;48.550;9.108;2023-03-31T06:30:42;12.10;75.01
18361;SHT31;9308;48.550;9.108;2023-03-31T06:33:08;12.24;74.62
18361;SHT31;9308;48.550;9.108;2023-03-31T06:35:37;12.24;74.20
18361;SHT31;9308;48.550;9.108;2023-03-31T06:38:02;12.01;75.17
18361;SHT31;9308;48.550;9.108;2023-03-31T06:40:28;12.03;75.53
18361;SHT31;9308;48.550;9.108;2023-03-31T06:42:53;11.62;76.85
18361;SHT31;9308;48.550;9.108;2023-03-31T06:45:19;11.47;77.15
18361;SHT31;9308;48.550;9.108;2023-03-31T06:47:45;11.89;76.05
18361;SHT31;9308;48.550;9.108;2023-03-31T06:50:10;11.45;77.22
18361;SHT31;9308;48.550;9.108;2023-03-31T06:52:36;11.54;76.79
18361;SHT31;9308;48.550;9.108;2023-03-31T06:55:02;10.99;79.28
18361;SHT31;9308;48.550;9.108;2023-03-31T06:57:28;11.21;78.40
18361;SHT31;9308;48.550;9.108;2023-03-31T06:59:54;11.03;78.70
18361;SHT31;9308;48.550;9.108;2023-03-31T07:02:19;10.96;79.39
18361;SHT31;9308;48.550;9.108;2023-03-31T07:04:45;10.89;79.97
18361;SHT31;9308;48.550;9.108;2023-03-31T07:07:11;10.84;80.64
18361;SHT31;9308;48.550;9.108;2023-03-31T07:09:36;10.94;79.87
18361;SHT31;9308;48.550;9.108;2023-03-31T07:12:02;11.21;79.25
18361;SHT31;9308;48.550;9.108;2023-03-31T07:14:30;10.79;80.01
18361;SHT31;9308;48.550;9.108;2023-03-31T07:16:56;10.56;80.38
18361;SHT31;9308;48.550;9.108;2023-03-31T07:19:22;10.56;78.35
18361;SHT31;9308;48.550;9.108;2023-03-31T07:21:47;10.71;78.62
18361;SHT31;9308;48.550;9.108;2023-03-31T07:24:13;10.66;76.79
18361;SHT31;9308;48.550;9.108;2023-03-31T07:26:38;10.50;77.12
18361;SHT31;9308;48.550;9.108;2023-03-31T07:29:04;10.77;77.23
18361;SHT31;9308;48.550;9.108;2023-03-31T07:31:30;11.06;77.78
18361;SHT31;9308;48.550;9.108;2023-03-31T07:33:55;11.22;77.51
18361;SHT31;9308;48.550;9.108;2023-03-31T07:36:20;11.44;77.71
18361;SHT31;9308;48.550;9.108;2023-03-31T07:38:46;11.34;77.61
18361;SHT31;9308;48.550;9.108;2023-03-31T07:41:18;11.54;77.30
18361;SHT31;9308;48.550;9.108;2023-03-31T07:43:44;11.49;77.42
18361;SHT31;9308;48.550;9.108;2023-03-31T07:46:21;11.89;76.05
18361;SHT31;9308;48.550;9.108;2023-03-31T07:51:25;12.48;74.86
18361;SHT31;9308;48.550;9.108;2023-03-31T07:53:51;12.55;74.89
18361;SHT31;9308;48.550;9.108;2023-03-31T07:56:22;12.44;75.02
18361;SHT31;9308;48.550;9.108;2023-03-31T07:58:49;12.32;76.22
18361;SHT31;9308;48.550;9.108;2023-03-31T08:01:18;12.16;75.01
18361;SHT31;9308;48.550;9.108;2023-03-31T08:03:45;12.23;74.95
18361;SHT31;9308;48.550;9.108;2023-03-31T08:06:11;12.27;75.55
18361;SHT31;9308;48.550;9.108;2023-03-31T08:08:37;12.49;75.44
18361;SHT31;9308;48.550;9.108;2023-03-31T08:11:07;12.48;74.88
18361;SHT31;9308;48.550;9.108;2023-03-31T08:13:33;12.62;74.38
18361;SHT31;9308;48.550;9.108;2023-03-31T08:15:58;12.81;74.95
18361;SHT31;9308;48.550;9.108;2023-03-31T08:18:24;13.03;75.57
18361;SHT31;9308;48.550;9.108;2023-03-31T08:20:49;13.18;73.47
18361;SHT31;9308;48.550;9.108;2023-03-31T08:23:15;13.41;73.23
18361;SHT31;9308;48.550;9.108;2023-03-31T08:25:41;13.58;73.06
18361;SHT31;9308;48.550;9.108;2023-03-31T08:28:06;13.14;70.75
18361;SHT31;9308;48.550;9.108;2023-03-31T08:30:36;13.42;72.28
18361;SHT31;9308;48.550;9.108;2023-03-31T08:33:02;13.42;71.87
18361;SHT31;9308;48.550;9.108;2023-03-31T08:35:28;13.55;71.48
18361;SHT31;9308;48.550;9.108;2023-03-31T08:37:53;13.78;70.39
18361;SHT31;9308;48.550;9.108;2023-03-31T08:40:21;13.79;69.54
18361;SHT31;9308;48.550;9.108;2023-03-31T08:42:50;13.93;70.45
18361;SHT31;9308;48.550;9.108;2023-03-31T08:47:46;14.07;68.70
18361;SHT31;9308;48.550;9.108;2023-03-31T08:50:20;14.24;68.08
18361;SHT31;9308;48.550;9.108;2023-03-31T08:53:01;14.14;67.97
18361;SHT31;9308;48.550;9.108;2023-03-31T08:55:35;14.18;67.42
18361;SHT31;9308;48.550;9.108;2023-03-31T09:01:32;14.64;65.56
18361;SHT31;9308;48.550;9.108;2023-03-31T09:06:55;14.68;64.33
18361;SHT31;9308;48.550;9.108;2023-03-31T09:09:42;15.14;65.34
18361;SHT31;9308;48.550;9.108;2023-03-31T09:12:16;14.80;63.42
18361;SHT31;9308;48.550;9.108;2023-03-31T09:15:03;15.02;63.53
18361;SHT31;9308;48.550;9.108;2023-03-31T09:17:33;15.02;61.04
18361;SHT31;9308;48.550;9.108;2023-03-31T09:20:17;14.97;60.57
18361;SHT31;9308;48.550;9.108;2023-03-31T09:22:48;14.61;60.61
18361;SHT31;9308;48.550;9.108;2023-03-31T09:25:19;14.59;62.03
18361;SHT31;9308;48.550;9.108;2023-03-31T09:27:45;15.10;59.91
18361;SHT31;9308;48.550;9.108;2023-03-31T09:32:40;14.90;57.68
18361;SHT31;9308;48.550;9.108;2023-03-31T09:35:23;15.10;58.70
18361;SHT31;9308;48.550;9.108;2023-03-31T09:37:51;15.26;59.41
18361;SHT31;9308;48.550;9.108;2023-03-31T09:40:22;15.10;58.54
18361;SHT31;9308;48.550;9.108;2023-03-31T09:43:03;15.51;58.06
18361;SHT31;9308;48.550;9.108;2023-03-31T09:45:30;15.82;57.36
18361;SHT31;9308;48.550;9.108;2023-03-31T09:48:01;16.27;56.07
18361;SHT31;9308;48.550;9.108;2023-03-31T09:50:28;15.87;56.49
18361;SHT31;9308;48.550;9.108;2023-03-31T09:52:56;16.28;55.34
18361;SHT31;9308;48.550;9.108;2023-03-31T09:55:32;16.20;54.48
18361;SHT31;9308;48.550;9.108;2023-03-31T09:58:05;15.94;54.29
18361;SHT31;9308;48.550;9.108;2023-03-31T10:00:32;15.63;55.27
18361;SHT31;9308;48.550;9.108;2023-03-31T10:03:01;15.68;55.56
18361;SHT31;9308;48.550;9.108;2023-03-31T10:05:39;16.10;55.10
18361;SHT31;9308;48.550;9.108;2023-03-31T10:11:16;16.86;52.97
18361;SHT31;9308;48.550;9.108;2023-03-31T10:13:47;17.67;51.81
18361;SHT31;9308;48.550;9.108;2023-03-31T10:16:43;17.61;51.42
18361;SHT31;9308;48.550;9.108;2023-03-31T10:19:31;17.82;50.73
18361;SHT31;9308;48.550;9.108;2023-03-31T10:22:00;17.47;50.68
18361;SHT31;9308;48.550;9.108;2023-03-31T10:24:35;17.14;48.75
18361;SHT31;9308;48.550;9.108;2023-03-31T10:27:04;17.61;49.25
18361;SHT31;9308;48.550;9.108;2023-03-31T10:29:31;17.32;47.18
18361;SHT31;9308;48.550;9.108;2023-03-31T10:34:58;17.17;45.94
18361;SHT31;9308;48.550;9.108;2023-03-31T10:37:28;17.69;47.76
18361;SHT31;9308;48.550;9.108;2023-03-31T10:39:57;17.40;46.22
18361;SHT31;9308;48.550;9.108;2023-03-31T10:42:25;17.27;46.20
18361;SHT31;9308;48.550;9.108;2023-03-31T10:45:10;18.14;45.87
18361;SHT31;9308;48.550;9.108;2023-03-31T10:47:38;18.23;46.23
18361;SHT31;9308;48.550;9.108;2023-03-31T10:50:13;17.65;46.23
18361;SHT31;9308;48.550;9.108;2023-03-31T10:52:44;17.97;45.48
18361;SHT31;9308;48.550;9.108;2023-03-31T10:55:22;17.86;46.49
18361;SHT31;9308;48.550;9.108;2023-03-31T10:57:56;17.82;47.21
18361;SHT31;9308;48.550;9.108;2023-03-31T11:00:49;17.55;46.61
18361;SHT31;9308;48.550;9.108;2023-03-31T11:06:11;16.76;44.74
18361;SHT31;9308;48.550;9.108;2023-03-31T11:14:23;15.79;46.42
18361;SHT31;9308;48.550;9.108;2023-03-31T11:17:38;15.08;52.09
18361;SHT31;9308;48.550;9.108;2023-03-31T11:22:38;11.86;75.04
18361;SHT31;9308;48.550;9.108;2023-03-31T11:25:27;10.14;88.91
18361;SHT31;9308;48.550;9.108;2023-03-31T11:28:18;10.00;87.97
18361;SHT31;9308;48.550;9.108;2023-03-31T11:30:53;9.86;82.96
18361;SHT31;9308;48.550;9.108;2023-03-31T11:33:34;9.98;80.45
18361;SHT31;9308;48.550;9.108;2023-03-31T11:41:19;10.08;75.69
18361;SHT31;9308;48.550;9.108;2023-03-31T11:49:25;9.48;84.43
18361;SHT31;9308;48.550;9.108;2023-03-31T11:52:14;9.67;81.10
18361;SHT31;9308;48.550;9.108;2023-03-31T11:54:52;9.87;82.06
18361;SHT31;9308;48.550;9.108;2023-03-31T11:57:29;10.01;81.01
18361;SHT31;9308;48.550;9.108;2023-03-31T12:00:04;10.44;81.09
18361;SHT31;9308;48.550;9.108;2023-03-31T12:02:42;10.61;79.54
18361;SHT31;9308;48.550;9.108;2023-03-31T12:05:09;10.59;78.77
18361;SHT31;9308;48.550;9.108;2023-03-31T12:08:14;11.01;79.27
18361;SHT31;9308;48.550;9.108;2023-03-31T12:10:45;11.00;78.46
18361;SHT31;9308;48.550;9.108;2023-03-31T12:13:47;11.10;78.71
18361;SHT31;9308;48.550;9.108;2023-03-31T12:16:21;11.18;76.54
18361;SHT31;9308;48.550;9.108;2023-03-31T12:19:04;11.28;77.07
18361;SHT31;9308;48.550;9.108;2023-03-31T12:21:33;11.35;75.97
18361;SHT31;9308;48.550;9.108;2023-03-31T12:24:00;11.96;74.32
18361;SHT31;9308;48.550;9.108;2023-03-31T12:29:06;12.99;71.46
18361;SHT31;9308;48.550;9.108;2023-03-31T12:31:36;12.83;71.22
18361;SHT31;9308;48.550;9.108;2023-03-31T12:34:07;12.81;71.93
18361;SHT31;9308;48.550;9.108;2023-03-31T12:39:40;13.59;67.37
18361;SHT31;9308;48.550;9.108;2023-03-31T12:45:05;14.09;66.51
18361;SHT31;9308;48.550;9.108;2023-03-31T12:47:56;14.62;65.97
18361;SHT31;9308;48.550;9.108;2023-03-31T12:55:58;14.31;65.47
18361;SHT31;9308;48.550;9.108;2023-03-31T13:06:01;14.00;63.24
18361;SHT31;9308;48.550;9.108;2023-03-31T13:11:39;13.41;64.57
18361;SHT31;9308;48.550;9.108;2023-03-31T13:14:22;13.41;65.74
18361;SHT31;9308;48.550;9.108;2023-03-31T13:16:50;13.52;65.40
18361;SHT31;9308;48.550;9.108;2023-03-31T13:19:31;13.49;65.71
18361;SHT31;9308;48.550;9.108;2023-03-31T13:21:58;13.27;65.11
18361;SHT31;9308;48.550;9.108;2023-03-31T13:24:25;13.66;66.88
18361;SHT31;9308;48.550;9.108;2023-03-31T13:26:52;13.44;66.02
18361;SHT31;9308;48.550;9.108;2023-03-31T13:29:23;13.13;67.36
18361;SHT31;9308;48.550;9.108;2023-03-31T13:34:30;13.10;67.01
18361;SHT31;9308;48.550;9.108;2023-03-31T13:37:36;13.16;68.24
18361;SHT31;9308;48.550;9.108;2023-03-31T13:48:13;12.56;72.48
18361;SHT31;9308;48.550;9.108;2023-03-31T13:53:28;11.52;74.86
18361;SHT31;9308;48.550;9.108;2023-03-31T13:59:22;11.11;76.76
18361;SHT31;9308;48.550;9.108;2023-03-31T14:07:20;11.94;78.74
18361;SHT31;9308;48.550;9.108;2023-03-31T14:09:51;12.66;75.02
18361;SHT31;9308;48.550;9.108;2023-03-31T14:12:20;13.35;72.03
18361;SHT31;9308;48.550;9.108;2023-03-31T14:14:46;13.59;71.56
18361;SHT31;9308;48.550;9.108;2023-03-31T14:17:12;14.06;70.59
18361;SHT31;9308;48.550;9.108;2023-03-31T14:20:02;13.56;68.79
18361;SHT31;9308;48.550;9.108;2023-03-31T14:22:45;13.55;69.61
18361;SHT31;9308;48.550;9.108;2023-03-31T14:25:25;13.38;70.33
18361;SHT31;9308;48.550;9.108;2023-03-31T14:28:21;13.54;69.84
18361;SHT31;9308;48.550;9.108;2023-03-31T14:31:06;13.54;71.43
18361;SHT31;9308;48.550;9.108;2023-03-31T14:37:00;13.36;70.48
18361;SHT31;9308;48.550;9.108;2023-03-31T14:39:09;13.58;70.56
18361;SHT31;9308;48.550;9.108;2023-03-31T14:41:36;13.76;69.83
18361;SHT31;9308;48.550;9.108;2023-03-31T14:44:04;13.48;70.20
18361;SHT31;9308;48.550;9.108;2023-03-31T14:46:31;13.25;70.36
18361;SHT31;9308;48.550;9.108;2023-03-31T14:48:57;13.31;70.19
18361;SHT31;9308;48.550;9.108;2023-03-31T14:51:26;13.90;69.25
18361;SHT31;9308;48.550;9.108;2023-03-31T14:53:59;14.04;68.67
18361;SHT31;9308;48.550;9.108;2023-03-31T14:56:30;14.45;66.66
18361;SHT31;9308;48.550;9.108;2023-03-31T14:59:00;14.71;65.17
18361;SHT31;9308;48.550;9.108;2023-03-31T15:01:29;14.92;65.20
18361;SHT31;9308;48.550;9.108;2023-03-31T15:03:59;14.97;63.72
18361;SHT31;9308;48.550;9.108;2023-03-31T15:06:25;15.32;63.55
18361;SHT31;9308;48.550;9.108;2023-03-31T15:08:55;15.45;62.61
18361;SHT31;9308;48.550;9.108;2023-03-31T15:11:21;16.10;62.33
18361;SHT31;9308;48.550;9.108;2023-03-31T15:13:49;16.09;59.82
18361;SHT31;9308;48.550;9.108;2023-03-31T15:16:36;16.17;59.89
18361;SHT31;9308;48.550;9.108;2023-03-31T15:19:20;15.65;60.61
18361;SHT31;9308;48.550;9.108;2023-03-31T15:21:58;15.94;59.89
18361;SHT31;9308;48.550;9.108;2023-03-31T15:24:27;15.66;61.15
18361;SHT31;9308;48.550;9.108;2023-03-31T15:27:04;15.26;61.70
18361;SHT31;9308;48.550;9.108;2023-03-31T15:30:05;15.03;62.86
18361;SHT31;9308;48.550;9.108;2023-03-31T15:32:34;14.61;61.71
18361;SHT31;9308;48.550;9.108;2023-03-31T15:35:01;14.13;63.30
18361;SHT31;9308;48.550;9.108;2023-03-31T15:37:33;14.18;63.83
18361;SHT31;9308;48.550;9.108;2023-03-31T15:40:01;13.71;64.45
18361;SHT31;9308;48.550;9.108;2023-03-31T15:42:31;13.58;66.23
18361;SHT31;9308;48.550;9.108;2023-03-31T15:48:00;13.52;65.26
18361;SHT31;9308;48.550;9.108;2023-03-31T15:50:27;13.42;65.35
18361;SHT31;9308;48.550;9.108;2023-03-31T15:52:54;13.42;66.04
18361;SHT31;9308;48.550;9.108;2023-03-31T15:57:48;13.30;65.87
18361;SHT31;9308;48.550;9.108;2023-03-31T16:00:41;13.30;65.80
18361;SHT31;9308;48.550;9.108;2023-03-31T16:03:16;13.24;66.32
18361;SHT31;9308;48.550;9.108;2023-03-31T16:05:53;13.20;67.02
18361;SHT31;9308;48.550;9.108;2023-03-31T16:08:41;12.96;66.61
18361;SHT31;9308;48.550;9.108;2023-03-31T16:11:14;12.97;66.95
18361;SHT31;9308;48.550;9.108;2023-03-31T16:13:47;13.08;66.66
18361;SHT31;9308;48.550;9.108;2023-03-31T16:16:16;12.73;66.36
18361;SHT31;9308;48.550;9.108;2023-03-31T16:18:49;12.75;66.53
18361;SHT31;9308;48.550;9.108;2023-03-31T16:21:21;12.73;66.95
18361;SHT31;9308;48.550;9.108;2023-03-31T16:23:52;12.75;66.63
18361;SHT31;9308;48.550;9.108;2023-03-31T16:26:22;12.59;67.58
18361;SHT31;9308;48.550;9.108;2023-03-31T16:28:50;12.79;67.68
18361;SHT31;9308;48.550;9.108;2023-03-31T16:31:28;12.66;70.40
18361;SHT31;9308;48.550;9.108;2023-03-31T16:33:56;12.68;71.36
18361;SHT31;9308;48.550;9.108;2023-03-31T16:36:21;12.48;70.13
18361;SHT31;9308;48.550;9.108;2023-03-31T16:38:50;12.45;72.65
18361;SHT31;9308;48.550;9.108;2023-03-31T16:41:16;12.16;71.74
18361;SHT31;9308;48.550;9.108;2023-03-31T16:43:44;11.55;73.73
18361;SHT31;9308;48.550;9.108;2023-03-31T16:46:09;11.18;76.53
18361;SHT31;9308;48.550;9.108;2023-03-31T16:48:35;11.69;78.63
18361;SHT31;9308;48.550;9.108;2023-03-31T16:51:03;11.55;75.97
18361;SHT31;9308;48.550;9.108;2023-03-31T16:53:33;11.41;75.96
18361;SHT31;9308;48.550;9.108;2023-03-31T16:55:59;11.63;75.19
18361;SHT31;9308;48.550;9.108;2023-03-31T16:58:25;11.85;75.25
18361;SHT31;9308;48.550;9.108;2023-03-31T17:00:55;11.80;75.88
18361;SHT31;9308;48.550;9.108;2023-03-31T17:03:21;11.82;75.26
18361;SHT31;9308;48.550;9.108;2023-03-31T17:05:49;11.67;74.51
18361;SHT31;9308;48.550;9.108;2023-03-31T17:08:18;11.85;74.07
18361;SHT31;9308;48.550;9.108;2023-03-31T17:13:20;12.31;73.56
18361;SHT31;9308;48.550;9.108;2023-03-31T17:15:46;12.34;72.96
18361;SHT31;9308;48.550;9.108;2023-03-31T17:18:12;12.41;72.26
18361;SHT31;9308;48.550;9.108;2023-03-31T17:20:37;12.69;72.18
18361;SHT31;9308;48.550;9.108;2023-03-31T17:23:03;12.79;72.86
18361;SHT31;9308;48.550;9.108;2023-03-31T17:25:28;12.84;71.82
18361;SHT31;9308;48.550;9.108;2023-03-31T17:27:54;12.59;72.30
18361;SHT31;9308;48.550;9.108;2023-03-31T17:30:21;12.77;72.17
18361;SHT31;9308;48.550;9.108;2023-03-31T17:32:46;13.06;72.36
18361;SHT31;9308;48.550;9.108;2023-03-31T17:35:12;12.92;70.86
18361;SHT31;9308;48.550;9.108;2023-03-31T17:37:45;12.95;71.57
18361;SHT31;9308;48.550;9.108;2023-03-31T17:40:11;12.35;70.39
18361;SHT31;9308;48.550;9.108;2023-03-31T17:42:37;12.44;70.14
18361;SHT31;9308;48.550;9.108;2023-03-31T17:45:03;12.62;71.43
18361;SHT31;9308;48.550;9.108;2023-03-31T17:47:29;12.51;72.56
18361;SHT31;9308;48.550;9.108;2023-03-31T17:49:56;12.56;72.78
18361;SHT31;9308;48.550;9.108;2023-03-31T17:52:22;12.68;71.50
18361;SHT31;9308;48.550;9.108;2023-03-31T17:54:47;12.72;71.89
18361;SHT31;9308;48.550;9.108;2023-03-31T17:57:13;12.31;71.96
18361;SHT31;9308;48.550;9.108;2023-03-31T17:59:38;12.14;72.22
18361;SHT31;9308;48.550;9.108;2023-03-31T18:02:04;12.59;72.04
18361;SHT31;9308;48.550;9.108;2023-03-31T18:04:29;12.41;71.40
18361;SHT31;9308;48.550;9.108;2023-03-31T18:06:55;12.18;71.99
18361;SHT31;9308;48.550;9.108;2023-03-31T18:09:20;12.01;72.13
18361;SHT31;9308;48.550;9.108;2023-03-31T18:11:46;12.11;72.43
18361;SHT31;9308;48.550;9.108;2023-03-31T18:14:12;12.40;73.15
18361;SHT31;9308;48.550;9.108;2023-03-31T18:16:37;12.32;72.11
18361;SHT31;9308;48.550;9.108;2023-03-31T18:19:03;12.16;72.36
18361;SHT31;9308;48.550;9.108;2023-03-31T18:21:29;12.08;72.92
18361;SHT31;9308;48.550;9.108;2023-03-31T18:23:54;12.21;72.56
18361;SHT31;9308;48.550;9.108;2023-03-31T18:26:22;11.93;72.84
18361;SHT31;9308;48.550;9.108;2023-03-31T18:28:48;11.85;73.23
18361;SHT31;9308;48.550;9.108;2023-03-31T18:31:14;11.69;73.88
18361;SHT31;9308;48.550;9.108;2023-03-31T18:33:40;11.94;72.83